ARKANSAS RIVER NAVIGATION REPORT
  LITTLE ROCK DISTRICT - U.S. ARMY CORPS OF ENGINEERS
  GENERATED: 28 SEP 2021 @ 11:06
 
  NOTE: These data are not guaranteed to be valid or correct.
        RELEASES AND FLOWS ARE IN THOUSANDS OF CFS
  _____________________________________________________________________________
 
                  27SEP     27SEP      27SEP           28SEP          28SEP
                  @1200     @2400     AVERAGE      LATEST OBSERVED    PRECIP.
                  HOURS     HOURS      FLOW         DATA AND TIME     (7A-7A)
  _____________________________________________________________________________
 
  LD13 HW-ELEV    391.67    391.65                391.63  @  10:00      0.00
  LD13 TW-ELEV    370.98    371.41                371.21  @  10:00
  LD13 RELEASE      0.0       8.0       6.0         0.0   @  10:00
 
  OZA.L&D HW-ELEV 371.07    371.48                371.27  @  10:00      0.00
  OZA.L&D TW-ELEV 338.01    337.95                337.88  @  10:00
  OZA.L&D RELEASE   9.1       8.9       6.7          .1   @   8:00
 
  DRD.L&D HW-ELEV 337.76    337.68                337.76  @  10:00      0.00
  DRD.L&D TW-ELEV 284.39    285.53                284.89  @  10:00
  DRD.L&D RELEASE    .6       0.0       5.4         9.4   @  10:00
 
  LD09 HW-ELEV    284.45    285.34                284.72  @  10:00      0.00
  LD09 TW-ELEV    265.10    265.19                264.97  @  10:00
  LD09 RELEASE      0.0       8.0       3.2         3.0   @  10:00
 
  LD08 HW-ELEV    265.17    265.30                265.08  @  10:00      0.00
  LD08 TW-ELEV    249.36    249.49                249.10  @  10:00
  LD08 RELEASE      0.0       8.3       2.9         2.8   @  10:00
 
  LD07 HW-ELEV    249.20    249.32                249.13  @  10:00      0.00
  LD07 TW-ELEV    231.01    231.15                230.93  @  10:00
  LD07 RELEASE      0.0       9.8       2.2        10.0   @  10:00
 
  LD06 HW-ELEV    231.13    231.09                231.01  @  10:00       .02
  LD06 TW-ELEV    213.92    213.89                214.06  @  10:00
  LD06 RELEASE       .1       8.4       1.8         7.6   @  10:00
 
  LD05 HW-ELEV    214.06    214.20                214.16  @  10:00       .05
  LD05 TW-ELEV    196.02    195.98                195.98  @  10:00
  LD05 RELEASE       .5      10.1       2.7        10.1   @   8:00
 
  LD04 HW-ELEV    196.20    196.35                196.23  @  10:00      0.00
  LD04 TW-ELEV    182.56    182.46                182.77  @  10:00
  LD04 RELEASE      0.0      10.3       2.3        10.2   @   7:00
 
  LD03 HW-ELEV    182.37    182.45                182.49  @  10:00      0.00
  LD03 TW-ELEV    162.42    162.66                162.69  @  10:00
  LD03 RELEASE      0.0       9.3       2.1         9.2   @  10:00
 
  L02 HW-ELEV     162.58    162.41                162.45  @  10:00      0.00
 
  D02 HW-ELEV     162.80    162.54                162.62  @  10:00      0.00
  D02 TW-ELEV     119.78    119.78                121.34  @  10:00
  D02 RELEASE       5.3        .3       3.4        10.5   @   7:00
 
  L01 TW-ELEV     123.99    124.50                124.86  @  10:00      0.00
 
  MPLD HW-ELEV    122.91    123.48                123.84  @  10:00      0.00	
  MPLD TW-ELEV    122.88    123.42                123.80  @  10:00
 
  WREC DIFF.        1.08      1.02                  1.02
  CLARENDON FLOW   15.64     15.61     15.76       15.44  @  10:00
  HELENA STAGE     12.78     13.34                 13.65  @  10:00
  CAIRO STAGE      24.34     24.09                 23.18  @  10:00
  _____________________________________________________________________________